Time;durP1;ratioP1;P1;durP2;ratioP2;P2;SDS_P1;SDS_P2;PMS_P1;PMS_P2;Temp;Humidity;BMP_temperature;BMP_pressure;BME280_temperature;BME280_humidity;BME280_pressure;Samples;Min_cycle;Max_cycle;Signal;HPM_P1;HPM_P2
2022/02/15 00:01:59;;;;;;;2.97;1.98;;;8.20;76.90;;;;;;5007451;28;20104;-74
2022/02/15 00:04:24;;;;;;;5.43;2.40;;;8.10;76.90;;;;;;5011613;28;20117;-74
2022/02/15 00:06:50;;;;;;;6.38;2.30;;;8.10;77.00;;;;;;5011556;28;20121;-74
2022/02/15 00:09:15;;;;;;;3.15;2.30;;;8.10;77.20;;;;;;5012573;28;20451;-74
2022/02/15 00:11:41;;;;;;;2.78;2.28;;;8.10;77.20;;;;;;5006103;28;20558;-75
2022/02/15 00:14:07;;;;;;;3.75;2.30;;;8.10;77.30;;;;;;5011763;28;20026;-75
2022/02/15 00:16:33;;;;;;;3.95;2.15;;;8.10;77.40;;;;;;5011807;28;20497;-75
2022/02/15 00:18:58;;;;;;;3.47;2.30;;;8.10;77.40;;;;;;5001825;28;20037;-75
2022/02/15 00:21:24;;;;;;;3.72;2.75;;;8.10;77.40;;;;;;5012379;28;20138;-75
2022/02/15 00:23:50;;;;;;;4.35;2.78;;;8.10;77.50;;;;;;5009420;28;20611;-74
2022/02/15 00:26:15;;;;;;;5.03;2.65;;;8.10;77.50;;;;;;5012482;28;20030;-75
2022/02/15 00:28:41;;;;;;;3.35;2.30;;;8.10;77.60;;;;;;5004079;28;20023;-74
2022/02/15 00:31:06;;;;;;;3.40;2.10;;;8.10;77.60;;;;;;5011820;28;20052;-75
2022/02/15 00:33:32;;;;;;;3.45;2.30;;;8.20;77.60;;;;;;5012859;28;20018;-74
2022/02/15 00:35:57;;;;;;;3.38;2.40;;;8.20;77.70;;;;;;5005674;28;20515;-75
2022/02/15 00:38:25;;;;;;;3.75;2.30;;;8.10;77.70;;;;;;5004854;28;20702;-74
2022/02/15 00:40:51;;;;;;;5.03;2.35;;;8.10;77.80;;;;;;5006850;28;20052;-74
2022/02/15 00:43:16;;;;;;;4.60;2.50;;;8.20;77.80;;;;;;5015369;28;20464;-75
2022/02/15 00:45:42;;;;;;;5.70;2.80;;;8.20;77.80;;;;;;5008727;28;20117;-75
2022/02/15 00:48:07;;;;;;;4.13;2.50;;;8.20;77.80;;;;;;5006812;28;20033;-76
2022/02/15 00:50:33;;;;;;;4.07;2.40;;;8.20;77.70;;;;;;5006885;28;20433;-76
2022/02/15 00:52:59;;;;;;;3.20;2.30;;;8.20;77.70;;;;;;5012075;28;20484;-75
2022/02/15 00:55:24;;;;;;;4.28;2.60;;;8.30;77.60;;;;;;5010183;28;20157;-75
2022/02/15 00:57:50;;;;;;;3.13;2.30;;;8.30;77.70;;;;;;5011132;28;20034;-75
2022/02/15 01:00:16;;;;;;;4.57;2.50;;;8.30;77.60;;;;;;5011561;28;20022;-75
2022/02/15 01:02:44;;;;;;;4.32;2.90;;;8.30;77.50;;;;;;5009534;28;20508;-75
2022/02/15 01:05:10;;;;;;;3.03;2.58;;;8.30;77.60;;;;;;5012012;28;20452;-75
2022/02/15 01:07:36;;;;;;;2.88;2.50;;;8.20;77.60;;;;;;5009102;28;20041;-74
2022/02/15 01:10:02;;;;;;;5.00;2.97;;;8.20;77.60;;;;;;5011861;28;20022;-74
2022/02/15 01:12:27;;;;;;;6.60;2.92;;;8.20;77.60;;;;;;5009686;28;20083;-75
2022/02/15 01:14:53;;;;;;;4.55;2.85;;;8.20;77.60;;;;;;5006016;28;20034;-75
2022/02/15 01:17:18;;;;;;;4.10;2.75;;;8.30;77.70;;;;;;5006879;28;20026;-75
2022/02/15 01:19:44;;;;;;;3.45;2.70;;;8.20;77.50;;;;;;5008160;28;20389;-75
2022/02/15 01:22:09;;;;;;;3.75;2.13;;;8.20;77.50;;;;;;5011949;28;20033;-76
2022/02/15 01:24:35;;;;;;;4.38;2.40;;;8.20;77.50;;;;;;5008187;28;20057;-75
2022/02/15 01:27:01;;;;;;;3.65;2.28;;;8.30;77.60;;;;;;5010638;28;20029;-75
2022/02/15 01:29:27;;;;;;;4.38;2.92;;;8.30;77.60;;;;;;5008599;28;20038;-75
2022/02/15 01:31:52;;;;;;;4.13;2.92;;;8.30;77.50;;;;;;5010283;28;20030;-75
2022/02/15 01:34:18;;;;;;;4.22;3.00;;;8.30;77.50;;;;;;5006973;28;20022;-75
2022/02/15 01:36:44;;;;;;;4.35;2.58;;;8.30;77.50;;;;;;5010564;28;20037;-75
2022/02/15 01:39:10;;;;;;;3.38;2.20;;;8.30;77.50;;;;;;5007539;28;20022;-75
2022/02/15 01:41:36;;;;;;;7.20;2.80;;;8.30;77.40;;;;;;5008071;28;20069;-75
2022/02/15 01:44:01;;;;;;;4.43;2.72;;;8.30;77.50;;;;;;5009608;28;20022;-75
2022/02/15 01:46:27;;;;;;;4.13;2.67;;;8.30;77.40;;;;;;4998787;28;20031;-76
2022/02/15 01:48:52;;;;;;;5.55;3.03;;;8.40;77.50;;;;;;5008585;28;20456;-76
2022/02/15 01:51:18;;;;;;;6.80;3.40;;;8.30;77.50;;;;;;5007202;28;20159;-74
2022/02/15 01:53:44;;;;;;;4.75;3.20;;;8.30;77.50;;;;;;5008928;28;20081;-76
2022/02/15 01:56:13;;;;;;;6.05;3.17;;;8.30;77.60;;;;;;5009562;28;20022;-75
2022/02/15 01:58:39;;;;;;;4.28;3.22;;;8.30;77.90;;;;;;5007015;28;20056;-75
2022/02/15 02:01:05;;;;;;;7.07;3.83;;;8.30;77.70;;;;;;5012679;28;20488;-75
2022/02/15 02:03:32;;;;;;;9.18;4.45;;;8.30;77.70;;;;;;5006806;28;20034;-74
2022/02/15 02:05:57;;;;;;;6.05;4.03;;;8.20;78.10;;;;;;5009904;28;20026;-74
2022/02/15 02:08:29;;;;;;;5.30;3.75;;;8.20;78.20;;;;;;5004187;28;20037;-75
2022/02/15 02:10:55;;;;;;;5.63;3.90;;;8.20;78.20;;;;;;5009469;28;20079;-75
2022/02/15 02:13:21;;;;;;;6.90;4.18;;;8.20;78.10;;;;;;5005691;28;20297;-75
2022/02/15 02:15:47;;;;;;;5.47;3.63;;;8.20;78.20;;;;;;5008943;28;20115;-75
2022/02/15 02:18:14;;;;;;;5.90;3.53;;;8.20;78.20;;;;;;5006035;28;20033;-75
2022/02/15 02:20:41;;;;;;;5.97;4.10;;;8.20;78.80;;;;;;5008329;28;20025;-74
2022/02/15 02:23:11;;;;;;;6.47;3.97;;;8.20;78.20;;;;;;5010565;28;20366;-74
2022/02/15 02:25:37;;;;;;;6.30;3.88;;;8.20;78.30;;;;;;5008157;28;20037;-75
2022/02/15 02:28:03;;;;;;;7.82;3.97;;;8.20;78.40;;;;;;5007503;28;20026;-74
2022/02/15 02:30:29;;;;;;;5.47;3.63;;;8.10;78.30;;;;;;4998647;28;20026;-75
2022/02/15 02:32:55;;;;;;;5.40;3.80;;;8.20;78.30;;;;;;5008104;28;20377;-75
2022/02/15 02:35:24;;;;;;;7.43;4.30;;;8.20;78.40;;;;;;5004217;28;20410;-74
2022/02/15 02:37:50;;;;;;;5.68;3.50;;;8.10;78.40;;;;;;5006895;28;20080;-75
2022/02/15 02:40:16;;;;;;;7.00;3.90;;;8.10;78.40;;;;;;5009920;28;20528;-75
2022/02/15 02:42:42;;;;;;;6.28;3.70;;;8.10;78.60;;;;;;5008249;28;20109;-75
2022/02/15 02:45:14;;;;;;;7.78;4.43;;;8.10;78.60;;;;;;5008074;28;20017;-75
2022/02/15 02:47:48;;;;;;;7.03;3.70;;;8.00;78.80;;;;;;5002463;28;20469;-74
2022/02/15 02:50:15;;;;;;;5.93;3.40;;;8.00;79.10;;;;;;5008284;28;20048;-76
2022/02/15 02:52:41;;;;;;;8.50;3.63;;;8.00;79.00;;;;;;5005650;28;20080;-74
2022/02/15 02:55:08;;;;;;;6.43;3.45;;;8.00;79.10;;;;;;5009573;28;20029;-75
2022/02/15 02:57:35;;;;;;;4.47;2.78;;;8.00;79.10;;;;;;5011041;28;20511;-74
2022/02/15 03:00:06;;;;;;;4.68;2.38;;;8.00;79.10;;;;;;5009292;28;20388;-75
2022/02/15 03:02:31;;;;;;;6.43;3.45;;;8.00;79.10;;;;;;5011896;28;20088;-74
2022/02/15 03:04:57;;;;;;;5.90;3.17;;;8.00;79.10;;;;;;5018017;28;20042;-75
2022/02/15 03:07:22;;;;;;;6.35;3.25;;;7.90;79.20;;;;;;5012575;28;20017;-74
2022/02/15 03:09:48;;;;;;;5.22;2.92;;;7.90;79.40;;;;;;5003661;28;20018;-75
2022/02/15 03:12:15;;;;;;;4.72;2.78;;;7.90;79.50;;;;;;5009524;28;20034;-74
2022/02/15 03:14:41;;;;;;;4.30;2.28;;;7.90;79.50;;;;;;5005589;28;20493;-74
2022/02/15 03:17:07;;;;;;;4.78;2.72;;;7.90;79.60;;;;;;5007757;28;20026;-74
2022/02/15 03:19:32;;;;;;;4.65;2.70;;;7.90;79.70;;;;;;5001823;28;20508;-74
2022/02/15 03:21:59;;;;;;;5.47;2.80;;;7.90;79.50;;;;;;5009185;28;20041;-74
2022/02/15 03:24:25;;;;;;;4.53;2.75;;;7.90;79.60;;;;;;5006346;28;20108;-74
2022/02/15 03:26:51;;;;;;;5.43;2.40;;;8.00;79.60;;;;;;5008087;28;20025;-74
2022/02/15 03:29:16;;;;;;;4.88;2.53;;;7.90;79.60;;;;;;5008356;28;20021;-74
2022/02/15 03:31:43;;;;;;;4.35;2.70;;;8.00;79.60;;;;;;5005769;28;20508;-75
2022/02/15 03:34:08;;;;;;;3.08;2.30;;;7.90;79.60;;;;;;5006329;28;20096;-75
2022/02/15 03:36:34;;;;;;;3.80;2.22;;;8.00;79.70;;;;;;5001413;28;20120;-74
2022/02/15 03:39:00;;;;;;;4.63;2.17;;;8.00;79.60;;;;;;5011731;28;20072;-75
2022/02/15 03:44:09;;;;;;;3.38;2.30;;;7.90;79.80;;;;;;5015614;28;20412;-74
2022/02/15 03:46:35;;;;;;;4.75;2.08;;;7.90;79.70;;;;;;5012778;28;20026;-74
2022/02/15 03:49:01;;;;;;;4.75;3.10;;;8.00;79.80;;;;;;5012458;28;20468;-74
2022/02/15 03:51:26;;;;;;;3.72;2.55;;;7.90;79.70;;;;;;5012440;28;20138;-75
2022/02/15 03:53:53;;;;;;;3.28;2.10;;;7.90;79.80;;;;;;5009907;28;20025;-74
2022/02/15 03:56:19;;;;;;;4.68;2.30;;;7.90;79.80;;;;;;5011105;28;20034;-74
2022/02/15 03:58:46;;;;;;;3.60;2.38;;;8.00;79.70;;;;;;5013075;28;20061;-74
2022/02/15 04:01:12;;;;;;;4.75;2.47;;;8.00;79.60;;;;;;5010573;28;20026;-74
2022/02/15 04:03:38;;;;;;;6.40;2.80;;;8.00;79.60;;;;;;5009890;28;20496;-74
2022/02/15 04:06:03;;;;;;;5.22;2.83;;;8.00;79.80;;;;;;5013515;28;20053;-75
2022/02/15 04:08:29;;;;;;;3.08;2.33;;;7.90;79.80;;;;;;5010239;28;20156;-74
2022/02/15 04:10:54;;;;;;;3.97;2.60;;;7.90;80.00;;;;;;5006064;28;20092;-75
2022/02/15 04:13:20;;;;;;;6.93;2.90;;;7.90;79.90;;;;;;5012221;28;20057;-74
2022/02/15 04:15:45;;;;;;;5.22;2.80;;;7.90;79.90;;;;;;5007329;28;20026;-74
2022/02/15 04:18:11;;;;;;;3.70;2.35;;;7.90;79.90;;;;;;5011795;28;20026;-75
2022/02/15 04:20:37;;;;;;;3.92;2.70;;;7.90;79.90;;;;;;5004868;28;20647;-74
2022/02/15 04:23:03;;;;;;;4.70;2.55;;;7.90;79.90;;;;;;5011016;28;20620;-74
2022/02/15 04:25:28;;;;;;;5.03;2.88;;;8.00;79.90;;;;;;5005584;28;20081;-74
2022/02/15 04:27:54;;;;;;;4.68;2.90;;;8.00;79.80;;;;;;5010339;28;20036;-74
2022/02/15 04:30:20;;;;;;;6.97;3.05;;;8.00;79.80;;;;;;5007683;28;20030;-75
2022/02/15 04:32:45;;;;;;;6.95;3.10;;;8.00;79.80;;;;;;5005888;28;20042;-74
2022/02/15 04:35:11;;;;;;;6.40;3.22;;;8.00;79.90;;;;;;5011922;28;20026;-74
2022/02/15 04:37:37;;;;;;;4.57;3.10;;;8.00;80.00;;;;;;5009555;28;20029;-74
2022/02/15 04:40:04;;;;;;;5.80;2.90;;;8.00;80.00;;;;;;5012879;28;20029;-74
2022/02/15 04:42:29;;;;;;;5.50;3.15;;;8.00;79.90;;;;;;5004757;28;20440;-74
2022/02/15 04:44:55;;;;;;;6.20;3.20;;;8.00;79.90;;;;;;5011509;28;20108;-74
2022/02/15 04:47:20;;;;;;;5.38;3.55;;;7.90;79.90;;;;;;5007079;28;20136;-75
2022/02/15 04:49:46;;;;;;;5.90;3.20;;;7.90;79.90;;;;;;5008936;28;20156;-75
2022/02/15 04:52:11;;;;;;;4.80;2.45;;;7.90;80.00;;;;;;5006672;28;20038;-74
2022/02/15 04:54:37;;;;;;;4.18;2.60;;;8.00;80.00;;;;;;5015458;28;20030;-73
2022/02/15 04:57:03;;;;;;;4.63;3.45;;;8.00;79.80;;;;;;5012297;28;20039;-75
2022/02/15 04:59:29;;;;;;;4.60;3.40;;;8.00;79.90;;;;;;5007243;28;20487;-76
2022/02/15 05:01:55;;;;;;;5.40;3.40;;;8.00;79.80;;;;;;5011813;28;20825;-75
2022/02/15 05:07:05;;;;;;;5.85;3.55;;;8.00;79.80;;;;;;5010920;28;20067;-75
2022/02/15 05:09:30;;;;;;;6.47;3.78;;;8.00;79.80;;;;;;5009853;28;20022;-75
2022/02/15 05:11:56;;;;;;;6.28;4.13;;;8.00;79.90;;;;;;5010501;28;20041;-75
2022/02/15 05:14:22;;;;;;;5.80;4.13;;;8.00;79.90;;;;;;5012140;28;20145;-76
2022/02/15 05:16:47;;;;;;;5.60;3.40;;;8.00;79.90;;;;;;5008224;28;20457;-76
2022/02/15 05:19:13;;;;;;;6.18;4.40;;;8.10;80.00;;;;;;5011585;28;20026;-76
2022/02/15 05:21:39;;;;;;;8.10;4.88;;;8.00;79.90;;;;;;5006825;28;20045;-76
2022/02/15 05:24:06;;;;;;;7.05;4.45;;;8.00;80.00;;;;;;5010143;28;20044;-75
2022/02/15 05:26:31;;;;;;;5.90;3.67;;;8.00;79.90;;;;;;5007833;28;20033;-76
2022/02/15 05:28:57;;;;;;;8.40;5.47;;;8.00;80.00;;;;;;5007049;28;20075;-76
2022/02/15 05:31:22;;;;;;;8.10;4.25;;;8.00;80.10;;;;;;5006833;28;20030;-76
2022/02/15 05:33:48;;;;;;;9.15;5.85;;;8.00;80.20;;;;;;5009270;28;20026;-77
2022/02/15 05:36:15;;;;;;;7.95;5.53;;;8.00;80.30;;;;;;5010437;28;20057;-76
2022/02/15 05:38:42;;;;;;;9.15;6.22;;;8.00;80.30;;;;;;5009372;28;20547;-77
2022/02/15 05:41:08;;;;;;;7.32;5.28;;;8.00;80.40;;;;;;5010125;28;20025;-76
2022/02/15 05:43:33;;;;;;;9.05;6.70;;;8.00;80.30;;;;;;5004489;28;20027;-76
2022/02/15 05:45:59;;;;;;;12.48;7.57;;;8.00;80.50;;;;;;5009723;28;20037;-76
2022/02/15 05:48:24;;;;;;;11.18;6.88;;;8.00;80.50;;;;;;5004631;28;20037;-76
2022/02/15 05:50:50;;;;;;;9.20;6.93;;;8.00;80.60;;;;;;5010433;28;20025;-75
2022/02/15 05:53:22;;;;;;;11.13;6.65;;;8.00;80.70;;;;;;5007244;28;20030;-75
2022/02/15 05:55:52;;;;;;;9.98;6.50;;;8.00;80.80;;;;;;5008496;28;20037;-75
2022/02/15 05:58:19;;;;;;;7.85;5.55;;;8.00;80.80;;;;;;5007325;28;20038;-75
2022/02/15 06:00:44;;;;;;;9.60;6.78;;;8.00;80.90;;;;;;5005555;28;20084;-74
2022/02/15 06:05:54;;;;;;;9.82;6.78;;;8.00;80.90;;;;;;5006024;28;20029;-73
2022/02/15 06:08:20;;;;;;;11.27;7.15;;;8.00;80.90;;;;;;5007896;28;20037;-73
2022/02/15 06:10:48;;;;;;;10.18;6.63;;;8.00;80.90;;;;;;5006375;28;20102;-73
2022/02/15 06:13:15;;;;;;;10.88;6.80;;;8.10;81.00;;;;;;5005235;28;20427;-73
2022/02/15 06:15:41;;;;;;;11.63;6.55;;;8.10;81.00;;;;;;5006364;28;20149;-74
2022/02/15 06:18:07;;;;;;;11.52;8.20;;;8.10;81.10;;;;;;5008362;28;20041;-74
2022/02/15 06:20:32;;;;;;;11.35;7.00;;;8.10;81.20;;;;;;5007030;28;20021;-73
2022/02/15 06:22:58;;;;;;;12.45;7.63;;;8.00;81.20;;;;;;5007282;28;20088;-74
2022/02/15 06:25:23;;;;;;;11.63;8.35;;;8.10;81.30;;;;;;5007469;28;20172;-74
2022/02/15 06:27:49;;;;;;;14.77;8.05;;;8.00;81.30;;;;;;5004122;28;20022;-74
2022/02/15 06:30:15;;;;;;;10.55;7.75;;;8.10;81.50;;;;;;5007276;28;20291;-73
2022/02/15 06:32:40;;;;;;;13.80;8.40;;;8.00;81.60;;;;;;5007605;28;20574;-75
2022/02/15 06:35:08;;;;;;;9.95;7.38;;;8.00;81.90;;;;;;5005092;28;20033;-73
2022/02/15 06:37:34;;;;;;;11.85;7.03;;;8.00;81.90;;;;;;5002766;28;20022;-74
2022/02/15 06:40:00;;;;;;;8.95;5.90;;;8.10;81.80;;;;;;5005791;28;20018;-74
2022/02/15 06:42:26;;;;;;;8.88;6.63;;;8.10;81.70;;;;;;4999587;28;20044;-74
2022/02/15 06:44:51;;;;;;;13.82;8.18;;;8.10;81.70;;;;;;5004129;28;20030;-73
2022/02/15 06:47:17;;;;;;;11.88;7.55;;;8.10;81.70;;;;;;5006422;28;20029;-74
2022/02/15 06:49:42;;;;;;;16.13;10.15;;;8.10;81.70;;;;;;5007005;28;20096;-73
2022/02/15 06:52:08;;;;;;;12.43;7.95;;;8.10;81.80;;;;;;5006751;28;20535;-74
2022/02/15 06:54:33;;;;;;;11.85;7.47;;;8.10;81.90;;;;;;5006382;28;20117;-74
2022/02/15 06:56:59;;;;;;;10.77;7.22;;;8.10;82.00;;;;;;5007904;28;20033;-74
2022/02/15 06:59:24;;;;;;;12.55;8.45;;;8.10;82.10;;;;;;5005842;28;20056;-74
2022/02/15 07:01:50;;;;;;;12.93;7.88;;;8.10;82.10;;;;;;5007088;28;20038;-74
2022/02/15 07:04:16;;;;;;;11.50;7.30;;;8.10;82.20;;;;;;4997908;28;20033;-74
2022/02/15 07:06:42;;;;;;;11.57;8.02;;;8.10;82.20;;;;;;5002968;28;20056;-73
2022/02/15 07:09:08;;;;;;;11.93;8.30;;;8.10;82.40;;;;;;5000626;28;20465;-74
2022/02/15 07:11:33;;;;;;;15.15;9.50;;;8.10;83.00;;;;;;5000005;28;20558;-74
2022/02/15 07:13:59;;;;;;;14.13;9.18;;;8.10;82.30;;;;;;5007068;28;20029;-74
2022/02/15 07:16:24;;;;;;;13.80;9.18;;;8.10;82.50;;;;;;5016088;28;20025;-73
2022/02/15 07:18:50;;;;;;;12.45;8.18;;;8.00;82.60;;;;;;5018415;28;20034;-73
2022/02/15 07:21:15;;;;;;;14.38;8.77;;;8.10;82.60;;;;;;5021209;28;20029;-74
2022/02/15 07:23:41;;;;;;;10.52;6.97;;;8.10;82.50;;;;;;5017878;28;20033;-74
2022/02/15 07:26:06;;;;;;;14.70;9.13;;;8.20;82.40;;;;;;5022458;28;20650;-73
2022/02/15 07:28:32;;;;;;;13.00;8.15;;;8.20;82.40;;;;;;5016940;28;20037;-73
2022/02/15 07:30:57;;;;;;;12.68;7.47;;;8.20;82.30;;;;;;5012414;28;20018;-73
2022/02/15 07:33:23;;;;;;;14.43;8.70;;;8.20;82.20;;;;;;5012373;28;20025;-76
2022/02/15 07:35:49;;;;;;;13.50;8.48;;;8.20;82.30;;;;;;5023197;28;20036;-76
2022/02/15 07:38:15;;;;;;;11.02;7.55;;;8.20;82.40;;;;;;5009302;28;20030;-77
2022/02/15 07:40:40;;;;;;;12.77;8.00;;;8.20;82.40;;;;;;5008052;28;20037;-74
2022/02/15 07:43:06;;;;;;;15.30;9.20;;;8.20;82.40;;;;;;5013386;28;20729;-74
2022/02/15 07:45:32;;;;;;;13.13;8.23;;;8.20;82.50;;;;;;5006603;28;20018;-73
2022/02/15 07:47:57;;;;;;;17.55;8.90;;;8.20;82.40;;;;;;5006338;28;20037;-74
2022/02/15 07:50:23;;;;;;;12.98;8.02;;;8.20;82.40;;;;;;5005820;28;20026;-74
2022/02/15 07:52:54;;;;;;;10.57;6.82;;;8.20;82.60;;;;;;5006243;28;20034;-76
2022/02/15 07:55:20;;;;;;;10.60;6.15;;;8.20;82.50;;;;;;5009252;28;20370;-74
2022/02/15 07:57:46;;;;;;;11.55;7.45;;;8.20;82.40;;;;;;5010947;28;20029;-74
2022/02/15 08:00:18;;;;;;;10.23;6.40;;;8.30;82.30;;;;;;5010449;28;20022;-74
2022/02/15 08:02:51;;;;;;;10.40;6.25;;;8.30;82.20;;;;;;5004832;28;20042;-74
2022/02/15 08:05:17;;;;;;;11.07;6.68;;;8.30;82.20;;;;;;5009848;28;20022;-76
2022/02/15 08:07:47;;;;;;;14.88;7.93;;;8.30;82.30;;;;;;5007402;28;20365;-88
2022/02/15 08:10:13;;;;;;;12.43;6.80;;;8.30;82.90;;;;;;5006616;28;20113;-76
2022/02/15 08:12:40;;;;;;;10.20;6.20;;;8.30;82.30;;;;;;5009264;28;20041;-75
2022/02/15 08:15:06;;;;;;;10.75;6.55;;;8.40;82.30;;;;;;5010300;28;20388;-74
2022/02/15 08:17:32;;;;;;;11.68;5.55;;;8.40;82.20;;;;;;5006954;28;20018;-75
2022/02/15 08:19:57;;;;;;;10.43;5.90;;;8.40;82.10;;;;;;5011568;28;20029;-74
2022/02/15 08:22:24;;;;;;;11.55;6.38;;;8.40;82.00;;;;;;5007049;28;20045;-74
2022/02/15 08:24:49;;;;;;;11.90;6.90;;;8.40;82.00;;;;;;5010006;28;20033;-75
2022/02/15 08:27:15;;;;;;;10.15;6.03;;;8.40;82.00;;;;;;5007272;28;20033;-74
2022/02/15 08:29:40;;;;;;;12.23;5.97;;;8.40;82.00;;;;;;5008390;28;20018;-77
2022/02/15 08:32:06;;;;;;;17.05;7.80;;;8.50;81.90;;;;;;5010937;28;20380;-74
2022/02/15 08:34:33;;;;;;;9.85;6.53;;;8.40;81.90;;;;;;5007208;28;20651;-76
2022/02/15 08:36:58;;;;;;;10.82;5.40;;;8.40;82.00;;;;;;5011854;28;20029;-74
2022/02/15 08:39:25;;;;;;;11.80;6.43;;;8.40;82.00;;;;;;5011987;28;20018;-74
2022/02/15 08:41:51;;;;;;;13.25;6.88;;;8.50;81.90;;;;;;5010836;28;20030;-73
2022/02/15 08:44:16;;;;;;;12.95;6.43;;;8.50;81.90;;;;;;5004795;28;20386;-73
2022/02/15 08:46:42;;;;;;;14.10;6.82;;;8.50;81.90;;;;;;5008043;28;20038;-73
2022/02/15 08:49:08;;;;;;;10.18;6.07;;;8.50;81.80;;;;;;5009061;28;20028;-74
2022/02/15 08:51:37;;;;;;;10.77;5.68;;;8.50;81.80;;;;;;5009379;28;20035;-74
2022/02/15 08:54:04;;;;;;;12.85;5.75;;;8.50;81.70;;;;;;5009752;28;20022;-73
2022/02/15 08:56:29;;;;;;;12.50;5.15;;;8.60;81.70;;;;;;5003539;28;20026;-74
2022/02/15 08:58:55;;;;;;;10.45;4.63;;;8.60;81.50;;;;;;5012763;28;20041;-74
2022/02/15 09:01:20;;;;;;;9.95;4.57;;;8.60;81.40;;;;;;5009693;28;20037;-74
2022/02/15 09:03:46;;;;;;;8.05;4.00;;;8.60;81.30;;;;;;5004963;28;20083;-76
2022/02/15 09:06:12;;;;;;;8.15;3.38;;;8.60;81.10;;;;;;5004428;28;20389;-76
2022/02/15 09:08:38;;;;;;;11.63;4.53;;;8.70;81.10;;;;;;5013128;28;20034;-74
2022/02/15 09:11:04;;;;;;;10.02;3.97;;;8.70;80.80;;;;;;5017833;28;20106;-75
2022/02/15 09:13:30;;;;;;;8.57;3.08;;;8.60;80.50;;;;;;5019895;28;20488;-74
2022/02/15 09:15:56;;;;;;;9.32;3.55;;;8.60;80.20;;;;;;5013933;28;20372;-75
2022/02/15 09:18:21;;;;;;;6.07;2.72;;;8.60;79.80;;;;;;5008462;28;20028;-74
2022/02/15 09:20:48;;;;;;;5.80;2.80;;;8.60;79.50;;;;;;5004470;28;20492;-73
2022/02/15 09:23:14;;;;;;;8.55;3.35;;;8.70;79.10;;;;;;5008387;28;20033;-73
2022/02/15 09:25:39;;;;;;;8.23;3.47;;;8.70;78.10;;;;;;5010930;28;20041;-74
2022/02/15 09:28:05;;;;;;;7.07;3.20;;;8.70;78.10;;;;;;5011863;28;20516;-73
2022/02/15 09:30:31;;;;;;;6.63;3.30;;;8.90;77.90;;;;;;5014183;28;20026;-73
2022/02/15 09:32:56;;;;;;;9.23;3.72;;;9.00;77.30;;;;;;5015798;28;20065;-74
2022/02/15 09:35:22;;;;;;;8.25;3.20;;;9.10;76.80;;;;;;5012193;28;20029;-74
2022/02/15 09:37:48;;;;;;;6.43;2.58;;;9.10;76.20;;;;;;5013514;28;20018;-74
2022/02/15 09:40:14;;;;;;;6.38;2.80;;;9.30;76.30;;;;;;5008219;28;20568;-74
2022/02/15 09:42:39;;;;;;;8.05;3.38;;;9.40;76.00;;;;;;5002263;28;20034;-74
2022/02/15 09:45:09;;;;;;;7.63;2.85;;;9.40;75.30;;;;;;5010266;28;20041;-74
2022/02/15 09:47:37;;;;;;;6.60;3.00;;;9.30;75.40;;;;;;5006706;28;20026;-73
2022/02/15 09:50:07;;;;;;;9.60;4.03;;;9.30;75.30;;;;;;5021075;28;20026;-74
2022/02/15 09:52:33;;;;;;;5.93;2.88;;;9.20;75.20;;;;;;5000280;28;20030;-73
2022/02/15 09:55:00;;;;;;;6.10;2.80;;;9.20;75.50;;;;;;5011338;28;21523;-74
2022/02/15 09:57:27;;;;;;;7.90;2.75;;;9.30;75.40;;;;;;5007600;28;20045;-75
2022/02/15 09:59:54;;;;;;;6.88;2.95;;;9.30;75.30;;;;;;5011128;28;20059;-73
2022/02/15 10:02:24;;;;;;;9.65;3.40;;;9.40;75.10;;;;;;5007274;28;20508;-74
2022/02/15 10:04:54;;;;;;;7.55;3.03;;;9.40;74.60;;;;;;5010836;28;20018;-75
2022/02/15 10:07:21;;;;;;;6.82;3.40;;;9.30;74.00;;;;;;5006187;28;20065;-74
2022/02/15 10:09:51;;;;;;;8.45;3.17;;;9.30;74.20;;;;;;5004370;28;20030;-74
2022/02/15 10:12:17;;;;;;;7.25;2.90;;;9.40;74.40;;;;;;5005208;28;20022;-76
2022/02/15 10:14:45;;;;;;;7.03;3.03;;;9.40;74.10;;;;;;5007294;28;20029;-76
2022/02/15 10:17:13;;;;;;;6.00;2.60;;;9.40;73.90;;;;;;5012808;28;20029;-76
2022/02/15 10:19:40;;;;;;;10.38;3.25;;;9.50;73.90;;;;;;5014434;28;20030;-76
2022/02/15 10:22:06;;;;;;;9.75;2.83;;;9.50;73.50;;;;;;5016695;28;20076;-75
2022/02/15 10:24:35;;;;;;;8.18;2.72;;;9.50;73.50;;;;;;5008820;28;20041;-74
2022/02/15 10:27:11;;;;;;;7.35;2.80;;;9.40;73.60;;;;;;5016037;28;20026;-76
2022/02/15 10:29:40;;;;;;;7.72;2.78;;;9.30;73.30;;;;;;5002133;28;20033;-73
2022/02/15 10:32:13;;;;;;;7.85;2.65;;;9.20;73.60;;;;;;5003610;28;20041;-74
2022/02/15 10:34:49;;;;;;;5.75;2.53;;;9.20;73.60;;;;;;5003121;28;20036;-74
2022/02/15 10:37:16;;;;;;;3.40;1.92;;;9.20;73.20;;;;;;5006470;28;20045;-73
2022/02/15 10:39:44;;;;;;;5.50;2.22;;;9.30;73.10;;;;;;5007498;28;20034;-73
2022/02/15 10:42:18;;;;;;;4.70;1.77;;;9.40;71.70;;;;;;5007667;28;20161;-74
2022/02/15 10:44:58;;;;;;;5.88;1.98;;;9.50;71.20;;;;;;5006968;28;20046;-73
2022/02/15 10:47:26;;;;;;;6.95;2.15;;;9.70;70.80;;;;;;5007454;28;20037;-75
2022/02/15 10:49:54;;;;;;;7.82;2.30;;;9.70;69.90;;;;;;5006709;28;20096;-73
2022/02/15 10:52:21;;;;;;;5.53;1.90;;;9.80;69.70;;;;;;5004233;28;20029;-73
2022/02/15 10:54:47;;;;;;;3.88;1.85;;;9.80;69.20;;;;;;5007423;28;20117;-73
2022/02/15 10:57:17;;;;;;;8.68;2.28;;;9.80;68.90;;;;;;5002732;28;20165;-73
2022/02/15 10:59:49;;;;;;;4.85;1.70;;;9.80;68.90;;;;;;5007437;28;20059;-73
2022/02/15 11:02:25;;;;;;;5.25;1.73;;;9.70;69.20;;;;;;5007210;28;20042;-73
2022/02/15 11:04:51;;;;;;;5.78;2.15;;;9.80;69.40;;;;;;5003577;28;20022;-73
2022/02/15 11:07:19;;;;;;;6.13;1.85;;;9.90;69.20;;;;;;5007382;28;20025;-75
2022/02/15 11:10:01;;;;;;;7.80;2.22;;;9.90;69.20;;;;;;5008703;28;20412;-76
2022/02/15 11:12:42;;;;;;;7.32;2.08;;;10.10;68.90;;;;;;5006632;28;20029;-74
2022/02/15 11:15:10;;;;;;;3.50;1.45;;;10.10;67.90;;;;;;5004405;28;20022;-74
2022/02/15 11:17:45;;;;;;;9.30;3.15;;;10.20;68.00;;;;;;5005329;28;20038;-74
2022/02/15 11:20:16;;;;;;;4.30;1.80;;;10.20;67.30;;;;;;5008674;28;20506;-74
2022/02/15 11:22:43;;;;;;;6.40;1.80;;;10.00;66.70;;;;;;5006906;28;20069;-74
2022/02/15 11:25:09;;;;;;;7.90;1.92;;;9.90;67.00;;;;;;5009444;28;20041;-75
2022/02/15 11:27:35;;;;;;;5.45;1.67;;;9.90;67.30;;;;;;5005384;28;20030;-76
2022/02/15 11:30:02;;;;;;;6.25;1.70;;;9.90;67.10;;;;;;5004954;28;20083;-75
2022/02/15 11:32:31;;;;;;;3.85;1.60;;;10.00;67.40;;;;;;5000841;28;20101;-73
2022/02/15 11:34:57;;;;;;;8.60;2.00;;;10.00;67.10;;;;;;5002059;28;20072;-74
2022/02/15 11:37:24;;;;;;;6.00;1.90;;;10.00;66.70;;;;;;5004533;28;20022;-75
2022/02/15 11:40:00;;;;;;;7.32;1.92;;;10.00;66.00;;;;;;5002481;28;20025;-73
2022/02/15 11:42:26;;;;;;;3.75;1.50;;;9.90;65.90;;;;;;5003507;28;20101;-73
2022/02/15 11:44:54;;;;;;;3.40;1.48;;;9.80;65.50;;;;;;5001915;28;20448;-73
2022/02/15 11:47:24;;;;;;;6.32;1.73;;;9.90;65.20;;;;;;5003105;28;20105;-73
2022/02/15 11:49:54;;;;;;;4.60;1.40;;;9.80;64.30;;;;;;5006914;28;20072;-74
2022/02/15 11:52:21;;;;;;;5.30;1.70;;;9.80;64.60;;;;;;5007249;28;20022;-73
2022/02/15 11:54:46;;;;;;;4.43;1.50;;;9.90;64.70;;;;;;5003284;28;20089;-73
2022/02/15 11:57:14;;;;;;;5.00;1.50;;;10.00;64.30;;;;;;5006612;28;20022;-73
2022/02/15 11:59:40;;;;;;;4.82;1.70;;;10.00;63.60;;;;;;5008244;28;20030;-73
2022/02/15 12:02:10;;;;;;;4.50;1.70;;;10.10;63.40;;;;;;5007107;28;20108;-73
2022/02/15 12:04:36;;;;;;;4.50;1.80;;;10.20;62.90;;;;;;5006839;28;20026;-75
2022/02/15 12:07:03;;;;;;;5.10;1.80;;;10.40;62.90;;;;;;5014148;28;20072;-74
2022/02/15 12:09:37;;;;;;;4.25;1.48;;;10.40;62.30;;;;;;5011330;28;20032;-74
2022/02/15 12:12:04;;;;;;;3.10;1.50;;;10.70;62.00;;;;;;5010827;28;20064;-75
2022/02/15 12:14:30;;;;;;;3.47;1.30;;;11.40;59.60;;;;;;5004703;28;20038;-77
2022/02/15 12:17:00;;;;;;;4.38;1.75;;;11.40;59.40;;;;;;5010484;28;20168;-76
2022/02/15 12:19:37;;;;;;;3.63;1.52;;;11.30;58.30;;;;;;5002621;28;20307;-75
2022/02/15 12:22:14;;;;;;;5.82;1.90;;;11.60;58.10;;;;;;5014225;28;20029;-74
2022/02/15 12:24:39;;;;;;;5.18;2.00;;;12.30;57.50;;;;;;5010462;28;20033;-74
2022/02/15 12:27:07;;;;;;;4.93;1.90;;;12.30;56.40;;;;;;5010248;28;20024;-75
2022/02/15 12:29:33;;;;;;;4.25;1.90;;;11.70;56.70;;;;;;5031997;28;20694;-75
2022/02/15 12:32:01;;;;;;;4.55;2.50;;;11.40;58.00;;;;;;5006119;28;20036;-77
2022/02/15 12:34:28;;;;;;;4.30;2.05;;;11.20;58.10;;;;;;4997645;28;20145;-77
2022/02/15 12:36:54;;;;;;;4.65;2.10;;;11.00;58.60;;;;;;5004404;28;20034;-76
2022/02/15 12:39:21;;;;;;;5.45;2.53;;;10.90;58.90;;;;;;5002953;28;20065;-74
2022/02/15 12:41:49;;;;;;;6.70;2.35;;;10.80;58.90;;;;;;5001635;28;20042;-73
2022/02/15 12:44:15;;;;;;;6.40;2.40;;;10.80;59.40;;;;;;5000790;28;20028;-74
2022/02/15 12:46:42;;;;;;;4.47;2.08;;;10.90;59.80;;;;;;5000641;28;20372;-74
2022/02/15 12:49:08;;;;;;;3.83;1.73;;;11.10;59.90;;;;;;5003828;28;20030;-75
2022/02/15 12:51:38;;;;;;;3.75;1.88;;;11.30;59.50;;;;;;5004294;28;20037;-74
2022/02/15 12:54:05;;;;;;;4.35;1.80;;;11.30;59.20;;;;;;5007230;28;20038;-74
2022/02/15 12:56:32;;;;;;;3.72;2.00;;;11.30;59.00;;;;;;5003954;28;20499;-75
2022/02/15 12:59:02;;;;;;;4.55;1.95;;;11.30;58.70;;;;;;5005013;28;20029;-74